createdAt,value
2023-02-11T09:52:40.411Z,7.80
2023-02-11T09:55:25.728Z,7.70
2023-02-11T09:57:52.949Z,7.80
2023-02-11T10:00:28.596Z,7.80
2023-02-11T10:03:20.723Z,7.80
2023-02-11T10:05:59.184Z,7.80
2023-02-11T10:08:54.691Z,7.80
2023-02-11T10:11:48.679Z,7.90
2023-02-11T10:14:49.585Z,7.90
2023-02-11T10:17:23.120Z,7.90
2023-02-11T10:19:53.060Z,7.90
2023-02-11T10:22:28.627Z,7.80
2023-02-11T10:24:59.868Z,7.70
2023-02-11T10:27:36.966Z,7.80
2023-02-11T10:30:28.703Z,7.80
2023-02-11T10:33:17.984Z,7.80
2023-02-11T10:35:54.672Z,7.90
2023-02-11T10:38:33.974Z,7.90
2023-02-11T10:41:32.634Z,8.00
2023-02-11T10:44:00.403Z,7.90
2023-02-11T10:46:43.229Z,7.90
2023-02-11T10:50:10.457Z,7.90
2023-02-11T10:56:14.548Z,7.90
2023-02-11T10:59:14.322Z,7.80
2023-02-11T11:06:44.839Z,7.80
2023-02-11T11:10:37.574Z,7.90
2023-02-11T11:17:39.142Z,7.80
2023-02-11T11:21:17.442Z,7.80
2023-02-11T11:27:20.660Z,7.80
2023-02-11T11:30:59.606Z,7.80
2023-02-11T11:33:31.031Z,7.90
2023-02-11T11:36:10.252Z,8.00
2023-02-11T11:38:44.690Z,7.90
2023-02-11T11:41:20.472Z,7.90
2023-02-11T11:43:55.659Z,7.90
2023-02-11T11:46:25.227Z,7.80
2023-02-11T11:48:56.380Z,7.80
2023-02-11T11:51:24.711Z,7.80
2023-02-11T11:54:02.896Z,7.70
2023-02-11T11:56:33.711Z,7.70
2023-02-11T11:59:13.975Z,7.70
2023-02-11T12:02:10.467Z,7.70
2023-02-11T12:05:07.669Z,7.70
2023-02-11T12:07:47.579Z,7.80
2023-02-11T12:10:14.339Z,7.80
2023-02-11T12:12:50.287Z,7.90
2023-02-11T12:15:34.763Z,7.90
2023-02-11T12:18:21.978Z,8.00
2023-02-11T12:21:00.791Z,8.00
2023-02-11T12:23:58.002Z,8.10
2023-02-11T12:26:35.352Z,8.10
2023-02-11T12:29:14.043Z,8.10
2023-02-11T12:32:09.603Z,8.10
2023-02-11T12:35:06.331Z,8.10
2023-02-11T12:37:48.853Z,8.10
2023-02-11T12:40:45.045Z,8.20
2023-02-11T12:43:29.425Z,8.40
2023-02-11T12:46:27.460Z,8.40
2023-02-11T12:48:55.199Z,8.40
2023-02-11T12:51:35.046Z,8.50
2023-02-11T12:54:15.695Z,8.60
2023-02-11T12:57:13.421Z,8.70
2023-02-11T13:00:12.993Z,8.60
2023-02-11T13:02:55.351Z,8.50
2023-02-11T13:05:37.615Z,8.60
2023-02-11T13:08:44.586Z,8.70
2023-02-11T13:11:17.397Z,8.80
2023-02-11T13:13:46.900Z,8.80
2023-02-11T13:16:22.913Z,9.10
2023-02-11T13:18:57.459Z,9.20
2023-02-11T13:21:43.425Z,9.30
2023-02-11T13:24:22.891Z,9.20
2023-02-11T13:26:55.781Z,9.20
2023-02-11T13:29:36.532Z,9.10
2023-02-11T13:32:10.094Z,9.00
2023-02-11T13:34:43.061Z,9.00
2023-02-11T13:37:23.906Z,8.90
2023-02-11T13:39:58.204Z,8.90
2023-02-11T13:42:24.986Z,8.90
2023-02-11T13:44:52.378Z,8.90
2023-02-11T13:47:36.953Z,8.90
2023-02-11T13:50:07.417Z,9.00
2023-02-11T13:52:37.701Z,9.00
2023-02-11T13:55:13.602Z,9.00
2023-02-11T13:57:41.524Z,8.90
2023-02-11T14:00:34.197Z,9.00
2023-02-11T14:03:31.760Z,9.00
2023-02-11T14:06:29.302Z,8.90
2023-02-11T14:09:01.107Z,8.90
2023-02-11T14:11:33.622Z,8.90
2023-02-11T14:14:19.272Z,8.90
2023-02-11T14:16:58.638Z,9.00
2023-02-11T14:19:35.549Z,9.10
2023-02-11T14:22:16.387Z,9.00
2023-02-11T14:24:48.265Z,9.00
2023-02-11T14:27:29.355Z,9.00
2023-02-11T14:30:33.549Z,9.00
2023-02-11T14:33:24.218Z,8.90
2023-02-11T14:36:17.315Z,8.90
2023-02-11T14:38:52.425Z,8.80
2023-02-11T14:41:31.796Z,8.80
2023-02-11T14:44:06.232Z,8.90
2023-02-11T14:46:33.915Z,8.80
2023-02-11T14:49:03.520Z,8.80
2023-02-11T14:51:40.508Z,8.70
2023-02-11T14:54:23.626Z,8.70
2023-02-11T14:57:13.723Z,8.60
2023-02-11T14:59:52.109Z,8.40
2023-02-11T15:02:26.180Z,8.30
2023-02-11T15:04:53.024Z,8.20
2023-02-11T15:07:19.933Z,8.20
2023-02-11T15:09:51.107Z,8.10
2023-02-11T15:12:26.314Z,8.10
2023-02-11T15:14:55.495Z,8.00
2023-02-11T15:17:30.958Z,8.00
2023-02-11T15:20:02.571Z,8.10
2023-02-11T15:22:33.752Z,8.10
2023-02-11T15:25:14.667Z,8.10
2023-02-11T15:27:43.292Z,8.00
2023-02-11T15:30:33.949Z,8.00
2023-02-11T15:33:03.271Z,8.00
2023-02-11T15:35:37.030Z,8.00
2023-02-11T15:38:04.790Z,8.00
2023-02-11T15:40:34.487Z,8.00
2023-02-11T15:43:09.556Z,8.00
2023-02-11T15:45:40.105Z,8.00
2023-02-11T15:48:23.217Z,8.00
2023-02-11T15:50:58.631Z,8.00
2023-02-11T15:53:27.540Z,7.90
2023-02-11T15:56:21.864Z,7.90
2023-02-11T15:58:51.039Z,7.90
2023-02-11T16:01:17.900Z,8.00
2023-02-11T16:03:50.445Z,8.00
2023-02-11T16:06:22.125Z,8.00
2023-02-11T16:09:12.244Z,8.00
2023-02-11T16:11:48.212Z,8.00
2023-02-11T16:14:32.895Z,8.00
2023-02-11T16:17:17.919Z,8.00
2023-02-11T16:19:47.058Z,8.00
2023-02-11T16:22:27.418Z,8.00
2023-02-11T16:24:58.075Z,8.00
2023-02-11T16:27:30.392Z,8.00
2023-02-11T16:29:58.202Z,8.00
2023-02-11T16:32:27.647Z,8.00
2023-02-11T16:34:57.890Z,8.00
2023-02-11T16:37:25.294Z,8.00
2023-02-11T16:39:58.143Z,8.00
2023-02-11T16:42:25.240Z,8.00
2023-02-11T16:44:52.067Z,8.00
2023-02-11T16:47:27.875Z,8.10
2023-02-11T16:49:56.053Z,8.10
2023-02-11T16:52:23.785Z,8.10
2023-02-11T16:54:50.607Z,8.10
2023-02-11T16:57:22.999Z,8.10
2023-02-11T16:59:50.600Z,8.00
2023-02-11T17:02:25.225Z,8.00
2023-02-11T17:04:58.032Z,7.90
2023-02-11T17:07:25.175Z,7.90
2023-02-11T17:09:52.211Z,7.90
2023-02-11T17:12:21.726Z,7.80
2023-02-11T17:14:48.541Z,7.90
2023-02-11T17:17:16.177Z,7.80
2023-02-11T17:19:43.227Z,7.80
2023-02-11T17:22:11.432Z,7.80
2023-02-11T17:24:38.198Z,7.80
2023-02-11T17:27:04.890Z,7.80
2023-02-11T17:29:31.583Z,7.80
2023-02-11T17:31:58.393Z,7.80
2023-02-11T17:34:25.271Z,7.90
2023-02-11T17:36:52.069Z,7.80
2023-02-11T17:39:20.961Z,7.80
2023-02-11T17:41:47.809Z,7.80
2023-02-11T17:44:16.492Z,7.80
2023-02-11T17:46:43.867Z,7.80
